createdAt,value
2022-11-03T00:01:39.511Z,15.98
2022-11-03T00:04:09.042Z,15.94
2022-11-03T00:06:36.469Z,15.94
2022-11-03T00:09:06.543Z,15.89
2022-11-03T00:11:39.628Z,15.93
2022-11-03T00:14:09.435Z,15.95
2022-11-03T00:16:36.723Z,15.94
2022-11-03T00:19:04.228Z,15.90
2022-11-03T00:21:31.641Z,15.86
2022-11-03T00:23:59.025Z,15.87
2022-11-03T00:26:28.136Z,15.84
2022-11-03T00:28:57.686Z,15.87
2022-11-03T00:31:28.535Z,15.85
2022-11-03T00:33:55.810Z,16.04
2022-11-03T00:36:25.580Z,15.91
2022-11-03T00:38:52.535Z,15.95
2022-11-03T00:41:21.620Z,15.94
2022-11-03T00:43:49.820Z,15.88
2022-11-03T00:46:18.065Z,15.88
2022-11-03T00:48:45.078Z,15.82
2022-11-03T00:51:15.849Z,15.81
2022-11-03T00:53:45.414Z,15.76
2022-11-03T00:56:36.996Z,15.74
2022-11-03T00:59:05.493Z,15.74
2022-11-03T01:01:45.313Z,15.72
2022-11-03T01:04:32.306Z,15.79
2022-11-03T01:07:01.348Z,15.73
2022-11-03T01:09:38.627Z,15.72
2022-11-03T01:12:14.608Z,15.72
2022-11-03T01:14:41.859Z,15.74
2022-11-03T01:17:14.788Z,15.70
2022-11-03T01:19:41.979Z,15.70
2022-11-03T01:22:10.911Z,15.71
2022-11-03T01:24:41.438Z,15.73
2022-11-03T01:27:15.368Z,15.72
2022-11-03T01:29:43.033Z,15.69
2022-11-03T01:32:10.293Z,15.73
2022-11-03T01:34:37.350Z,15.70
2022-11-03T01:37:04.737Z,15.67
2022-11-03T01:39:31.700Z,15.59
2022-11-03T01:41:58.843Z,15.61
2022-11-03T01:44:29.335Z,15.65
2022-11-03T01:46:56.269Z,15.60
2022-11-03T01:49:38.847Z,15.53
2022-11-03T01:52:15.243Z,15.56
2022-11-03T01:54:45.094Z,15.59
2022-11-03T01:57:14.097Z,15.57
2022-11-03T01:59:42.383Z,15.57
2022-11-03T02:02:09.596Z,15.50
2022-11-03T02:04:37.088Z,15.56
2022-11-03T02:07:17.141Z,15.56
2022-11-03T02:09:44.186Z,15.59
2022-11-03T02:12:11.494Z,15.67
2022-11-03T02:14:49.858Z,15.72
2022-11-03T02:17:19.105Z,15.68
2022-11-03T02:19:54.091Z,15.64
2022-11-03T02:22:48.419Z,15.64
2022-11-03T02:25:33.907Z,15.55
2022-11-03T02:28:02.145Z,15.51
2022-11-03T02:30:39.221Z,15.59
2022-11-03T02:33:27.374Z,15.50
2022-11-03T02:36:03.633Z,15.51
2022-11-03T02:38:35.079Z,15.46
2022-11-03T02:41:07.862Z,15.45
2022-11-03T02:43:43.684Z,15.46
2022-11-03T02:46:15.397Z,15.47
2022-11-03T02:48:42.387Z,15.53
2022-11-03T02:51:09.549Z,15.52
2022-11-03T02:53:43.385Z,15.48
2022-11-03T02:56:22.412Z,15.37
2022-11-03T02:59:01.540Z,15.30
2022-11-03T03:01:47.481Z,15.29
2022-11-03T03:04:22.740Z,15.15
2022-11-03T03:06:56.712Z,14.99
2022-11-03T03:09:29.463Z,15.00
2022-11-03T03:11:59.210Z,14.96
2022-11-03T03:14:37.766Z,14.84
2022-11-03T03:17:10.336Z,14.85
2022-11-03T03:19:53.252Z,14.77
2022-11-03T03:22:29.617Z,14.82
2022-11-03T03:25:15.191Z,14.87
2022-11-03T03:27:48.182Z,14.92
2022-11-03T03:30:16.286Z,14.93
2022-11-03T03:32:47.848Z,14.99
2022-11-03T03:35:19.404Z,14.98
2022-11-03T03:37:51.482Z,14.95
2022-11-03T03:40:26.223Z,14.87
2022-11-03T03:42:53.558Z,14.87
2022-11-03T03:45:21.309Z,14.89
2022-11-03T03:47:48.618Z,14.90
2022-11-03T03:50:16.740Z,14.97
2022-11-03T03:52:43.890Z,14.96
2022-11-03T03:55:21.184Z,14.89
2022-11-03T03:57:48.436Z,14.83
2022-11-03T04:00:16.265Z,14.73
2022-11-03T04:02:43.368Z,14.68
2022-11-03T04:05:10.321Z,14.55
2022-11-03T04:07:49.747Z,14.45
2022-11-03T04:10:18.132Z,14.43
2022-11-03T04:13:04.150Z,14.40
2022-11-03T04:16:01.936Z,14.40
2022-11-03T04:18:47.497Z,14.47
2022-11-03T04:21:33.162Z,14.46
2022-11-03T04:24:00.657Z,14.48
2022-11-03T04:26:28.869Z,14.46
2022-11-03T04:28:57.587Z,14.45
2022-11-03T04:31:26.663Z,14.43
2022-11-03T04:33:53.612Z,14.45
2022-11-03T04:36:22.919Z,14.40
2022-11-03T04:38:50.792Z,14.36
2022-11-03T04:41:24.502Z,14.36
2022-11-03T04:43:52.879Z,14.34
2022-11-03T04:46:30.693Z,14.37
2022-11-03T04:49:01.083Z,14.37
2022-11-03T04:51:31.745Z,14.33
2022-11-03T04:54:13.530Z,14.33
2022-11-03T04:56:41.139Z,14.30
2022-11-03T04:59:12.900Z,14.30
2022-11-03T05:01:40.391Z,14.26
2022-11-03T05:04:19.052Z,14.26
2022-11-03T05:06:53.322Z,14.33
2022-11-03T05:09:31.628Z,14.29
2022-11-03T05:11:59.413Z,14.29
2022-11-03T05:14:30.410Z,14.32
2022-11-03T05:16:58.930Z,14.21
2022-11-03T05:19:33.595Z,14.17
2022-11-03T05:22:03.027Z,14.10
2022-11-03T05:24:31.378Z,14.05
2022-11-03T05:26:59.737Z,13.94
2022-11-03T05:29:38.384Z,13.79
2022-11-03T05:32:13.473Z,13.74
2022-11-03T05:34:47.198Z,13.64
2022-11-03T05:37:31.585Z,13.66
2022-11-03T05:40:14.930Z,13.65
2022-11-03T05:42:45.452Z,13.57
2022-11-03T05:45:21.314Z,13.63
2022-11-03T05:47:50.117Z,13.71
2022-11-03T05:50:26.582Z,13.59
2022-11-03T05:53:08.590Z,13.55
2022-11-03T05:55:37.188Z,13.50
2022-11-03T05:58:33.293Z,13.49
2022-11-03T06:01:04.075Z,13.57
2022-11-03T06:03:35.995Z,13.56
2022-11-03T06:06:03.398Z,13.59
2022-11-03T06:08:38.958Z,13.82
2022-11-03T06:11:16.473Z,13.99
2022-11-03T06:13:43.660Z,14.07
2022-11-03T06:16:29.853Z,14.17
2022-11-03T06:18:57.403Z,14.25
2022-11-03T06:21:26.716Z,14.23
2022-11-03T06:23:55.176Z,14.33
2022-11-03T06:26:27.440Z,14.28
2022-11-03T06:28:55.602Z,14.30
2022-11-03T06:31:32.860Z,14.46
2022-11-03T06:34:00.053Z,14.55
2022-11-03T06:36:37.120Z,14.61
2022-11-03T06:39:17.147Z,14.59
2022-11-03T06:41:44.154Z,14.63
2022-11-03T06:44:31.761Z,14.64
2022-11-03T06:47:17.018Z,14.71
2022-11-03T06:49:44.485Z,14.69
2022-11-03T06:52:30.506Z,14.78
2022-11-03T06:55:15.720Z,14.74
2022-11-03T06:57:48.026Z,14.73
2022-11-03T07:00:40.338Z,14.79
2022-11-03T07:03:35.342Z,14.93
2022-11-03T07:06:25.246Z,14.99
2022-11-03T07:08:55.689Z,15.00
2022-11-03T07:11:45.920Z,14.95
2022-11-03T07:14:20.282Z,14.93
2022-11-03T07:16:49.882Z,15.00
2022-11-03T07:19:21.708Z,14.96
2022-11-03T07:22:25.774Z,14.96
2022-11-03T07:24:55.496Z,15.06
2022-11-03T07:27:36.524Z,15.12
2022-11-03T07:30:17.761Z,15.21
2022-11-03T07:32:44.906Z,15.32
2022-11-03T07:35:18.043Z,15.49
2022-11-03T07:37:46.914Z,15.88
2022-11-03T07:40:21.816Z,16.10
2022-11-03T07:42:49.000Z,16.16
2022-11-03T07:45:42.175Z,16.32
2022-11-03T07:48:43.002Z,16.30
2022-11-03T07:51:29.963Z,16.34
2022-11-03T07:54:13.478Z,16.41
2022-11-03T07:56:44.180Z,16.26
2022-11-03T07:59:13.952Z,16.46
2022-11-03T08:01:42.312Z,16.24
2022-11-03T08:04:34.587Z,16.16
2022-11-03T08:07:01.512Z,15.94
2022-11-03T08:09:28.451Z,16.13
2022-11-03T08:11:55.443Z,16.10
2022-11-03T08:14:22.467Z,16.27
2022-11-03T08:16:49.536Z,16.50
2022-11-03T08:19:16.621Z,16.15
2022-11-03T08:21:43.664Z,16.27
2022-11-03T08:24:10.753Z,16.21
2022-11-03T08:26:37.885Z,16.31
2022-11-03T08:29:04.825Z,16.62
2022-11-03T08:31:31.791Z,16.51
2022-11-03T08:33:58.899Z,16.82
2022-11-03T08:36:26.074Z,16.55
2022-11-03T08:38:53.117Z,16.36
2022-11-03T08:41:20.112Z,16.48
2022-11-03T08:43:47.072Z,16.29
2022-11-03T08:46:17.692Z,16.45
2022-11-03T08:48:45.479Z,16.48
2022-11-03T08:51:14.307Z,16.62
2022-11-03T08:53:42.944Z,16.68
2022-11-03T08:56:13.008Z,16.96
2022-11-03T08:58:44.101Z,17.15
2022-11-03T09:01:11.303Z,17.26
2022-11-03T09:03:39.128Z,16.81
2022-11-03T09:06:06.342Z,16.83
2022-11-03T09:11:20.367Z,16.73
2022-11-03T09:13:47.305Z,16.63
2022-11-03T09:16:14.289Z,16.69
2022-11-03T09:18:41.175Z,16.89
2022-11-03T09:21:09.053Z,17.02
2022-11-03T09:23:36.007Z,17.04
2022-11-03T09:26:02.997Z,17.02
2022-11-03T09:28:29.959Z,17.06
2022-11-03T09:30:56.946Z,16.99
2022-11-03T09:33:23.937Z,17.32
2022-11-03T09:35:51.085Z,17.20
2022-11-03T09:38:18.045Z,16.94
2022-11-03T09:40:45.169Z,17.00
2022-11-03T09:43:15.228Z,16.93
2022-11-03T09:45:42.311Z,16.96
2022-11-03T09:48:13.191Z,17.00
2022-11-03T09:50:40.652Z,16.97
2022-11-03T09:53:11.757Z,17.29
2022-11-03T09:55:39.548Z,17.18
2022-11-03T09:58:18.180Z,17.00
2022-11-03T10:00:45.741Z,16.99
2022-11-03T10:03:14.584Z,16.87
2022-11-03T10:05:45.545Z,16.97
2022-11-03T10:08:30.140Z,17.28
2022-11-03T10:10:58.336Z,17.23
2022-11-03T10:13:33.411Z,17.20
2022-11-03T10:16:13.440Z,17.29
2022-11-03T10:18:40.820Z,17.53
2022-11-03T10:21:16.103Z,17.42
2022-11-03T10:23:43.112Z,17.62
2022-11-03T10:26:11.233Z,17.42
2022-11-03T10:28:38.797Z,17.59
2022-11-03T10:31:11.654Z,17.43
2022-11-03T10:33:55.166Z,17.34
2022-11-03T10:36:26.057Z,17.49
2022-11-03T10:38:53.905Z,17.63
2022-11-03T10:41:31.748Z,17.75
2022-11-03T10:44:11.023Z,17.75
2022-11-03T10:46:55.254Z,17.62
2022-11-03T10:49:22.418Z,17.75
2022-11-03T10:51:52.771Z,17.95
2022-11-03T10:54:23.181Z,18.05
2022-11-03T10:56:52.091Z,18.09
2022-11-03T10:59:31.928Z,18.10
2022-11-03T11:02:00.774Z,17.95
2022-11-03T11:04:28.436Z,17.94
2022-11-03T11:06:55.560Z,18.27
2022-11-03T11:09:28.020Z,18.11
2022-11-03T11:12:32.563Z,18.07
2022-11-03T11:15:02.661Z,17.95
2022-11-03T11:17:44.939Z,18.08
2022-11-03T11:20:21.687Z,17.87
2022-11-03T11:22:50.199Z,17.98
2022-11-03T11:25:20.305Z,18.03
2022-11-03T11:27:47.274Z,18.14
2022-11-03T11:30:19.956Z,18.06
2022-11-03T11:32:47.390Z,17.93
2022-11-03T11:35:26.680Z,17.89
2022-11-03T11:37:54.697Z,17.92
2022-11-03T11:40:24.317Z,17.98
2022-11-03T11:43:03.461Z,18.00
2022-11-03T11:46:07.649Z,18.14
2022-11-03T11:48:35.119Z,18.23
2022-11-03T11:51:04.061Z,18.17
2022-11-03T11:53:40.409Z,18.31
2022-11-03T11:56:12.060Z,18.37
2022-11-03T11:58:44.850Z,18.06
2022-11-03T12:01:35.513Z,18.31
2022-11-03T12:04:31.821Z,18.27
2022-11-03T12:06:59.663Z,18.29
2022-11-03T12:09:28.110Z,18.17
2022-11-03T12:12:03.478Z,18.31
2022-11-03T12:14:37.048Z,18.33
2022-11-03T12:17:16.187Z,18.46
2022-11-03T12:19:53.331Z,18.48
2022-11-03T12:22:29.587Z,18.50
2022-11-03T12:25:24.999Z,18.41
2022-11-03T12:27:52.733Z,18.12
2022-11-03T12:30:20.090Z,18.42
2022-11-03T12:32:47.728Z,18.27
2022-11-03T12:35:15.136Z,18.24
2022-11-03T12:37:42.362Z,18.13
2022-11-03T12:40:11.558Z,18.11
2022-11-03T12:42:38.714Z,18.22
2022-11-03T12:45:07.528Z,18.14
2022-11-03T12:47:34.559Z,18.10
2022-11-03T12:50:01.697Z,18.09
2022-11-03T12:52:28.814Z,18.14
2022-11-03T12:54:55.809Z,18.34
2022-11-03T12:57:22.966Z,18.51
2022-11-03T12:59:51.551Z,18.69
2022-11-03T13:02:18.782Z,18.81
2022-11-03T13:04:45.946Z,18.50
2022-11-03T13:07:13.121Z,18.48
2022-11-03T13:09:40.066Z,18.38
2022-11-03T13:12:25.656Z,18.51
2022-11-03T13:14:52.615Z,18.37
2022-11-03T13:17:19.594Z,18.58
2022-11-03T13:19:46.624Z,18.55
2022-11-03T13:22:13.580Z,18.55
2022-11-03T13:24:40.578Z,18.43
2022-11-03T13:27:07.622Z,18.55
2022-11-03T13:29:35.902Z,18.44
2022-11-03T13:32:04.167Z,18.45
2022-11-03T13:34:31.822Z,18.42
2022-11-03T13:36:59.040Z,18.47
2022-11-03T13:39:26.279Z,18.46
2022-11-03T13:41:53.501Z,18.47
2022-11-03T13:44:21.431Z,18.56
2022-11-03T13:46:48.370Z,18.47
2022-11-03T13:52:05.802Z,18.62
2022-11-03T14:00:12.233Z,18.50
2022-11-03T14:05:29.463Z,18.47
2022-11-03T14:07:56.515Z,18.49
2022-11-03T14:10:23.542Z,18.51
2022-11-03T14:12:52.890Z,18.49
2022-11-03T14:15:19.848Z,18.57
2022-11-03T14:17:46.787Z,18.32
2022-11-03T14:20:14.018Z,18.46
2022-11-03T14:22:41.101Z,18.44
2022-11-03T14:25:08.888Z,18.22
2022-11-03T14:27:35.959Z,18.17
2022-11-03T14:30:04.640Z,18.05
2022-11-03T14:32:31.719Z,18.09
2022-11-03T14:34:58.832Z,18.17
2022-11-03T14:37:26.190Z,18.29
2022-11-03T14:39:53.240Z,18.13
2022-11-03T14:42:20.392Z,18.17
2022-11-03T14:44:48.437Z,18.12
2022-11-03T14:47:18.059Z,18.02
2022-11-03T14:49:46.325Z,17.97
2022-11-03T14:52:14.929Z,17.92
2022-11-03T14:54:42.187Z,17.98
2022-11-03T14:57:09.914Z,17.87
2022-11-03T14:59:49.272Z,17.71
2022-11-03T15:02:25.893Z,17.66
2022-11-03T15:04:52.961Z,17.63
2022-11-03T15:07:22.518Z,17.58
2022-11-03T15:09:49.526Z,17.61
2022-11-03T15:12:16.512Z,17.55
2022-11-03T15:14:43.471Z,17.46
2022-11-03T15:17:10.499Z,17.42
2022-11-03T15:19:37.549Z,17.43
2022-11-03T15:22:04.542Z,17.34
2022-11-03T15:27:18.664Z,17.33
2022-11-03T15:29:45.649Z,17.28
2022-11-03T15:32:15.425Z,17.21
2022-11-03T15:34:42.262Z,17.16
2022-11-03T15:37:09.226Z,17.10
2022-11-03T15:39:36.266Z,17.03
2022-11-03T15:42:03.218Z,17.02
2022-11-03T15:44:30.292Z,16.93
2022-11-03T15:47:00.507Z,16.82
2022-11-03T15:49:27.569Z,16.78
2022-11-03T15:51:54.516Z,16.78
2022-11-03T15:54:21.555Z,16.80
2022-11-03T15:56:48.638Z,16.74
2022-11-03T15:59:15.705Z,16.61
2022-11-03T16:01:42.736Z,16.54
2022-11-03T16:04:09.809Z,16.52
2022-11-03T16:07:06.331Z,16.54
2022-11-03T16:09:25.027Z,16.70
2022-11-03T16:11:51.986Z,16.72
2022-11-03T16:14:19.306Z,16.62
2022-11-03T16:16:46.221Z,16.59
2022-11-03T16:19:13.278Z,16.44
2022-11-03T16:21:40.212Z,16.35
2022-11-03T16:24:07.715Z,16.34
2022-11-03T16:26:34.837Z,16.32
2022-11-03T16:29:01.793Z,16.31
2022-11-03T16:31:28.798Z,16.27
2022-11-03T16:33:55.824Z,16.30
2022-11-03T16:36:22.844Z,16.34
2022-11-03T16:38:49.825Z,16.28
2022-11-03T16:41:16.847Z,16.29
2022-11-03T16:43:43.899Z,16.27
2022-11-03T16:46:11.046Z,16.25
2022-11-03T16:48:38.112Z,16.25
2022-11-03T16:51:05.156Z,16.23
2022-11-03T16:53:32.224Z,16.25
2022-11-03T16:55:59.215Z,16.19
2022-11-03T16:58:26.196Z,16.11
2022-11-03T17:00:53.258Z,16.05
2022-11-03T17:03:20.280Z,15.98
2022-11-03T17:05:47.222Z,15.92
2022-11-03T17:08:39.056Z,15.85
2022-11-03T17:11:01.396Z,15.66
2022-11-03T17:13:28.680Z,15.54
2022-11-03T17:15:55.709Z,15.44
2022-11-03T17:18:22.714Z,15.34
2022-11-03T17:20:49.677Z,15.45
2022-11-03T17:23:16.619Z,15.45
2022-11-03T17:25:43.666Z,15.39
2022-11-03T17:28:11.840Z,15.34
2022-11-03T17:30:39.523Z,15.24
2022-11-03T17:33:09.272Z,15.19
2022-11-03T17:35:40.317Z,15.16
2022-11-03T17:38:14.027Z,15.04
2022-11-03T17:40:47.025Z,14.91
2022-11-03T17:43:20.514Z,14.82
2022-11-03T17:45:51.187Z,14.88
2022-11-03T17:48:18.389Z,14.84
2022-11-03T17:50:49.362Z,14.69
2022-11-03T17:53:22.724Z,14.73
2022-11-03T17:56:23.390Z,14.81
2022-11-03T17:58:46.138Z,14.84
2022-11-03T18:01:23.285Z,14.80
2022-11-03T18:03:50.516Z,14.75
2022-11-03T18:06:19.744Z,14.62
2022-11-03T18:08:48.252Z,14.50
2022-11-03T18:11:40.253Z,14.40
2022-11-03T18:14:07.337Z,14.31
2022-11-03T18:16:34.791Z,14.23
2022-11-03T18:19:13.681Z,14.25
2022-11-03T18:21:41.347Z,14.53
2022-11-03T18:24:19.799Z,14.59
2022-11-03T18:26:46.858Z,14.53
2022-11-03T18:29:13.744Z,14.53
2022-11-03T18:31:50.870Z,14.40
2022-11-03T18:34:25.782Z,14.29
2022-11-03T18:36:53.202Z,14.17
2022-11-03T18:39:25.898Z,14.10
2022-11-03T18:41:52.993Z,14.01
2022-11-03T18:44:25.585Z,13.95
2022-11-03T18:46:53.062Z,13.97
2022-11-03T18:49:20.532Z,13.93
2022-11-03T18:51:59.218Z,13.86
2022-11-03T18:54:30.880Z,13.81
2022-11-03T18:56:58.474Z,13.83
2022-11-03T18:59:28.784Z,13.79
2022-11-03T19:01:55.916Z,13.73
2022-11-03T19:04:23.425Z,13.73
2022-11-03T19:06:52.227Z,13.76
2022-11-03T19:09:24.782Z,13.66
2022-11-03T19:11:54.529Z,13.59
2022-11-03T19:14:35.044Z,13.58
2022-11-03T19:17:22.527Z,13.49
2022-11-03T19:19:51.930Z,13.49
2022-11-03T19:22:21.211Z,13.46
2022-11-03T19:24:48.576Z,13.58
2022-11-03T19:27:17.803Z,13.57
2022-11-03T19:29:47.095Z,13.63
2022-11-03T19:32:24.592Z,13.67
2022-11-03T19:35:01.887Z,13.74
2022-11-03T19:37:35.468Z,13.86
2022-11-03T19:40:20.180Z,13.84
2022-11-03T19:42:48.881Z,13.76
2022-11-03T19:45:18.658Z,13.61
2022-11-03T19:48:22.603Z,13.51
2022-11-03T19:50:42.149Z,13.40
2022-11-03T19:53:16.432Z,13.38
2022-11-03T19:55:43.539Z,13.36
2022-11-03T19:58:16.115Z,13.28
2022-11-03T20:00:44.380Z,13.23
2022-11-03T20:03:12.160Z,13.18
2022-11-03T20:05:43.907Z,13.14
2022-11-03T20:08:19.104Z,13.10
2022-11-03T20:10:48.136Z,13.05
2022-11-03T20:13:18.183Z,13.01
2022-11-03T20:15:45.490Z,13.05
2022-11-03T20:18:13.130Z,12.99
2022-11-03T20:20:41.520Z,13.00
2022-11-03T20:23:23.530Z,12.95
2022-11-03T20:25:50.675Z,12.92
2022-11-03T20:28:20.976Z,12.93
2022-11-03T20:30:49.436Z,12.95
2022-11-03T20:33:18.254Z,12.91
2022-11-03T20:35:47.015Z,12.90
2022-11-03T20:38:16.348Z,12.88
2022-11-03T20:40:43.409Z,12.98
2022-11-03T20:43:29.807Z,13.00
2022-11-03T20:45:59.656Z,13.01
2022-11-03T20:48:27.198Z,12.98
2022-11-03T20:50:54.712Z,12.90
2022-11-03T20:53:23.728Z,12.91
2022-11-03T20:55:51.306Z,12.92
2022-11-03T20:58:18.498Z,12.89
2022-11-03T21:00:47.612Z,12.83
2022-11-03T21:03:38.190Z,12.87
2022-11-03T21:06:07.943Z,12.87
2022-11-03T21:08:34.979Z,12.80
2022-11-03T21:11:20.551Z,12.78
2022-11-03T21:13:47.676Z,12.73
2022-11-03T21:16:33.702Z,12.77
2022-11-03T21:19:19.342Z,12.73
2022-11-03T21:21:46.411Z,12.74
2022-11-03T21:24:13.702Z,12.70
2022-11-03T21:26:42.110Z,12.73
2022-11-03T21:29:09.096Z,12.70
2022-11-03T21:31:36.098Z,12.72
2022-11-03T21:34:03.776Z,12.77
2022-11-03T21:36:31.086Z,12.73
2022-11-03T21:38:58.572Z,12.71
2022-11-03T21:41:44.580Z,12.70
2022-11-03T21:44:15.489Z,12.71
2022-11-03T21:46:43.897Z,12.68
2022-11-03T21:49:29.911Z,12.66
2022-11-03T21:51:57.446Z,12.63
2022-11-03T21:54:28.962Z,12.66
2022-11-03T21:56:55.912Z,12.66
2022-11-03T21:59:22.961Z,12.65
2022-11-03T22:01:53.349Z,12.63
2022-11-03T22:04:31.794Z,12.68
2022-11-03T22:07:00.017Z,12.69
2022-11-03T22:09:27.704Z,12.65
2022-11-03T22:11:55.035Z,12.77
2022-11-03T22:14:22.014Z,12.77
2022-11-03T22:16:49.135Z,12.91
2022-11-03T22:19:35.935Z,12.81
2022-11-03T22:22:29.757Z,12.84
2022-11-03T22:25:15.706Z,12.88
2022-11-03T22:27:42.792Z,12.80
2022-11-03T22:30:28.783Z,12.74
2022-11-03T22:32:58.450Z,12.83
2022-11-03T22:35:44.701Z,12.84
2022-11-03T22:38:20.376Z,12.87
2022-11-03T22:41:06.557Z,12.81
2022-11-03T22:43:51.952Z,12.77
2022-11-03T22:46:19.087Z,12.75
2022-11-03T22:48:46.081Z,12.74
2022-11-03T22:51:16.843Z,12.79
2022-11-03T22:54:02.690Z,12.74
2022-11-03T22:56:30.645Z,12.68
2022-11-03T22:58:57.846Z,12.76
2022-11-03T23:01:29.518Z,12.86
2022-11-03T23:03:56.927Z,12.95
2022-11-03T23:06:26.308Z,12.98
2022-11-03T23:08:54.978Z,12.99
2022-11-03T23:11:29.325Z,12.88
2022-11-03T23:13:58.987Z,12.91
2022-11-03T23:16:37.504Z,12.86
2022-11-03T23:19:24.485Z,12.81
2022-11-03T23:21:53.010Z,12.79
2022-11-03T23:24:42.239Z,12.74
2022-11-03T23:27:12.855Z,12.80
2022-11-03T23:29:39.943Z,12.70
2022-11-03T23:32:07.297Z,12.69
2022-11-03T23:34:35.355Z,12.70
2022-11-03T23:37:03.077Z,12.71
2022-11-03T23:39:30.030Z,12.68
2022-11-03T23:41:57.080Z,12.62
2022-11-03T23:44:24.115Z,12.72
2022-11-03T23:47:09.810Z,12.93
2022-11-03T23:49:36.847Z,12.83
2022-11-03T23:52:04.787Z,12.75
2022-11-03T23:54:31.868Z,12.78
2022-11-03T23:57:17.555Z,12.77
